sensor_id;sensor_type;location;lat;lon;timestamp;temperature;humidity
20732;DHT22;10527;52.124;5.196;2023-02-11T00:03:53;7.10;99.90
20732;DHT22;10527;52.124;5.196;2023-02-11T00:06:21;7.00;99.90
20732;DHT22;10527;52.124;5.196;2023-02-11T00:08:48;7.00;99.90
20732;DHT22;10527;52.124;5.196;2023-02-11T00:11:22;7.00;99.90
20732;DHT22;10527;52.124;5.196;2023-02-11T00:14:01;7.00;99.90
20732;DHT22;10527;52.124;5.196;2023-02-11T00:16:32;7.00;99.90
20732;DHT22;10527;52.124;5.196;2023-02-11T00:19:01;7.00;99.90
20732;DHT22;10527;52.124;5.196;2023-02-11T00:21:29;7.00;99.90
20732;DHT22;10527;52.124;5.196;2023-02-11T00:24:06;6.90;99.90
20732;DHT22;10527;52.124;5.196;2023-02-11T00:26:36;6.90;99.90
20732;DHT22;10527;52.124;5.196;2023-02-11T00:29:04;6.90;99.90
20732;DHT22;10527;52.124;5.196;2023-02-11T00:31:31;7.00;99.90
20732;DHT22;10527;52.124;5.196;2023-02-11T00:33:59;7.00;99.90
20732;DHT22;10527;52.124;5.196;2023-02-11T00:36:27;7.00;99.90
20732;DHT22;10527;52.124;5.196;2023-02-11T00:38:58;6.90;99.90
20732;DHT22;10527;52.124;5.196;2023-02-11T00:41:28;7.00;99.90
20732;DHT22;10527;52.124;5.196;2023-02-11T00:43:55;6.90;99.90
20732;DHT22;10527;52.124;5.196;2023-02-11T00:46:22;6.90;99.90
20732;DHT22;10527;52.124;5.196;2023-02-11T00:48:50;7.00;99.90
20732;DHT22;10527;52.124;5.196;2023-02-11T00:51:18;7.00;99.90
20732;DHT22;10527;52.124;5.196;2023-02-11T00:53:45;7.00;99.90
20732;DHT22;10527;52.124;5.196;2023-02-11T00:56:12;7.00;99.90
20732;DHT22;10527;52.124;5.196;2023-02-11T00:58:39;7.00;99.90
20732;DHT22;10527;52.124;5.196;2023-02-11T01:01:09;7.00;99.90
20732;DHT22;10527;52.124;5.196;2023-02-11T01:03:36;7.00;99.90
20732;DHT22;10527;52.124;5.196;2023-02-11T01:06:03;7.00;99.90
20732;DHT22;10527;52.124;5.196;2023-02-11T01:08:31;7.00;99.90
20732;DHT22;10527;52.124;5.196;2023-02-11T01:11:01;6.90;99.90
20732;DHT22;10527;52.124;5.196;2023-02-11T01:13:34;7.00;99.90
20732;DHT22;10527;52.124;5.196;2023-02-11T01:16:04;7.00;99.90
20732;DHT22;10527;52.124;5.196;2023-02-11T01:18:33;6.90;99.90
20732;DHT22;10527;52.124;5.196;2023-02-11T01:21:00;7.00;99.90
20732;DHT22;10527;52.124;5.196;2023-02-11T01:23:27;6.90;99.90
20732;DHT22;10527;52.124;5.196;2023-02-11T01:25:54;6.90;99.90
20732;DHT22;10527;52.124;5.196;2023-02-11T01:28:27;6.90;99.90
20732;DHT22;10527;52.124;5.196;2023-02-11T01:30:55;6.90;99.90
20732;DHT22;10527;52.124;5.196;2023-02-11T01:33:22;6.90;99.90
20732;DHT22;10527;52.124;5.196;2023-02-11T01:35:50;6.90;99.90
20732;DHT22;10527;52.124;5.196;2023-02-11T01:38:23;6.90;99.90
20732;DHT22;10527;52.124;5.196;2023-02-11T01:40:57;6.90;99.90
20732;DHT22;10527;52.124;5.196;2023-02-11T01:43:30;6.80;99.90
20732;DHT22;10527;52.124;5.196;2023-02-11T01:48:57;6.80;99.90
20732;DHT22;10527;52.124;5.196;2023-02-11T01:51:36;6.80;99.90
20732;DHT22;10527;52.124;5.196;2023-02-11T01:54:09;6.70;99.90
20732;DHT22;10527;52.124;5.196;2023-02-11T01:56:58;6.70;99.90
20732;DHT22;10527;52.124;5.196;2023-02-11T02:03:14;6.70;99.90
20732;DHT22;10527;52.124;5.196;2023-02-11T02:05:54;6.60;99.90
20732;DHT22;10527;52.124;5.196;2023-02-11T02:09:12;6.60;99.90
20732;DHT22;10527;52.124;5.196;2023-02-11T02:11:49;6.70;99.90
20732;DHT22;10527;52.124;5.196;2023-02-11T02:14:17;6.60;99.90
20732;DHT22;10527;52.124;5.196;2023-02-11T02:16:47;6.60;99.90
20732;DHT22;10527;52.124;5.196;2023-02-11T02:23:08;6.50;99.90
20732;DHT22;10527;52.124;5.196;2023-02-11T02:37:33;6.60;99.90
20732;DHT22;10527;52.124;5.196;2023-02-11T02:40:11;6.60;99.90
20732;DHT22;10527;52.124;5.196;2023-02-11T02:42:45;6.50;99.90
20732;DHT22;10527;52.124;5.196;2023-02-11T02:45:13;6.50;99.90
20732;DHT22;10527;52.124;5.196;2023-02-11T02:47:40;6.50;99.90
20732;DHT22;10527;52.124;5.196;2023-02-11T02:50:09;6.50;99.90
20732;DHT22;10527;52.124;5.196;2023-02-11T02:58:57;6.40;99.90
20732;DHT22;10527;52.124;5.196;2023-02-11T03:01:56;6.40;99.90
20732;DHT22;10527;52.124;5.196;2023-02-11T03:04:47;6.40;99.90
20732;DHT22;10527;52.124;5.196;2023-02-11T03:07:40;6.40;99.90
20732;DHT22;10527;52.124;5.196;2023-02-11T03:10:35;6.40;99.90
20732;DHT22;10527;52.124;5.196;2023-02-11T03:13:06;6.40;99.90
20732;DHT22;10527;52.124;5.196;2023-02-11T03:15:38;6.40;99.90
20732;DHT22;10527;52.124;5.196;2023-02-11T03:18:12;6.40;99.90
20732;DHT22;10527;52.124;5.196;2023-02-11T03:20:44;6.40;99.90
20732;DHT22;10527;52.124;5.196;2023-02-11T03:23:41;6.40;99.90
20732;DHT22;10527;52.124;5.196;2023-02-11T03:26:42;6.40;99.90
20732;DHT22;10527;52.124;5.196;2023-02-11T03:29:33;6.30;99.90
20732;DHT22;10527;52.124;5.196;2023-02-11T03:32:22;6.30;99.90
20732;DHT22;10527;52.124;5.196;2023-02-11T03:35:06;6.30;99.90
20732;DHT22;10527;52.124;5.196;2023-02-11T03:38:08;6.30;99.90
20732;DHT22;10527;52.124;5.196;2023-02-11T03:40:49;6.20;99.90
20732;DHT22;10527;52.124;5.196;2023-02-11T03:43:21;6.20;99.90
20732;DHT22;10527;52.124;5.196;2023-02-11T03:46:13;6.20;99.90
20732;DHT22;10527;52.124;5.196;2023-02-11T03:48:48;6.20;99.90
20732;DHT22;10527;52.124;5.196;2023-02-11T03:51:22;6.20;99.90
20732;DHT22;10527;52.124;5.196;2023-02-11T03:53:54;6.20;99.90
20732;DHT22;10527;52.124;5.196;2023-02-11T03:56:28;6.20;99.90
20732;DHT22;10527;52.124;5.196;2023-02-11T03:58:58;6.10;99.90
20732;DHT22;10527;52.124;5.196;2023-02-11T04:01:25;6.10;99.90
20732;DHT22;10527;52.124;5.196;2023-02-11T04:03:55;6.10;99.90
20732;DHT22;10527;52.124;5.196;2023-02-11T04:06:22;6.00;99.90
20732;DHT22;10527;52.124;5.196;2023-02-11T04:08:49;6.00;99.90
20732;DHT22;10527;52.124;5.196;2023-02-11T04:11:15;6.10;99.90
20732;DHT22;10527;52.124;5.196;2023-02-11T04:13:42;6.10;99.90
20732;DHT22;10527;52.124;5.196;2023-02-11T04:16:11;6.10;99.90
20732;DHT22;10527;52.124;5.196;2023-02-11T04:18:38;6.10;99.90
20732;DHT22;10527;52.124;5.196;2023-02-11T04:21:08;6.10;99.90
20732;DHT22;10527;52.124;5.196;2023-02-11T04:23:38;6.20;99.90
20732;DHT22;10527;52.124;5.196;2023-02-11T04:26:05;6.20;99.90
20732;DHT22;10527;52.124;5.196;2023-02-11T04:28:32;6.20;99.90
20732;DHT22;10527;52.124;5.196;2023-02-11T04:30:59;6.20;99.90
20732;DHT22;10527;52.124;5.196;2023-02-11T04:33:26;6.20;99.90
20732;DHT22;10527;52.124;5.196;2023-02-11T04:35:52;6.20;99.90
20732;DHT22;10527;52.124;5.196;2023-02-11T04:38:20;6.20;99.90
20732;DHT22;10527;52.124;5.196;2023-02-11T04:40:49;6.20;99.90
20732;DHT22;10527;52.124;5.196;2023-02-11T04:43:16;6.20;99.90
20732;DHT22;10527;52.124;5.196;2023-02-11T04:45:47;6.30;99.90
20732;DHT22;10527;52.124;5.196;2023-02-11T04:48:14;6.30;99.90
20732;DHT22;10527;52.124;5.196;2023-02-11T04:50:41;6.30;99.90
20732;DHT22;10527;52.124;5.196;2023-02-11T04:53:07;6.30;99.90
20732;DHT22;10527;52.124;5.196;2023-02-11T04:55:34;6.30;99.90
20732;DHT22;10527;52.124;5.196;2023-02-11T04:58:07;6.30;99.90
20732;DHT22;10527;52.124;5.196;2023-02-11T05:00:34;6.30;99.90
20732;DHT22;10527;52.124;5.196;2023-02-11T05:03:01;6.30;99.90
20732;DHT22;10527;52.124;5.196;2023-02-11T05:05:27;6.30;99.90
20732;DHT22;10527;52.124;5.196;2023-02-11T05:07:57;6.30;99.90
20732;DHT22;10527;52.124;5.196;2023-02-11T05:10:24;6.40;99.90
20732;DHT22;10527;52.124;5.196;2023-02-11T05:13:05;6.30;99.90
20732;DHT22;10527;52.124;5.196;2023-02-11T05:15:32;6.40;99.90
20732;DHT22;10527;52.124;5.196;2023-02-11T05:18:01;6.40;99.90
20732;DHT22;10527;52.124;5.196;2023-02-11T05:20:28;6.40;99.90
20732;DHT22;10527;52.124;5.196;2023-02-11T05:22:55;6.40;99.90
20732;DHT22;10527;52.124;5.196;2023-02-11T05:25:22;6.40;99.90
20732;DHT22;10527;52.124;5.196;2023-02-11T05:27:49;6.40;99.90
20732;DHT22;10527;52.124;5.196;2023-02-11T05:30:15;6.40;99.90
20732;DHT22;10527;52.124;5.196;2023-02-11T05:32:42;6.40;99.90
20732;DHT22;10527;52.124;5.196;2023-02-11T05:35:09;6.40;99.90
20732;DHT22;10527;52.124;5.196;2023-02-11T05:37:36;6.50;99.90
20732;DHT22;10527;52.124;5.196;2023-02-11T05:40:06;6.40;99.90
20732;DHT22;10527;52.124;5.196;2023-02-11T05:42:33;6.40;99.90
20732;DHT22;10527;52.124;5.196;2023-02-11T05:45:00;6.50;99.90
20732;DHT22;10527;52.124;5.196;2023-02-11T05:47:27;6.50;99.90
20732;DHT22;10527;52.124;5.196;2023-02-11T05:49:59;6.50;99.90
20732;DHT22;10527;52.124;5.196;2023-02-11T05:52:26;6.50;99.90
20732;DHT22;10527;52.124;5.196;2023-02-11T05:54:52;6.50;99.90
20732;DHT22;10527;52.124;5.196;2023-02-11T05:57:19;6.50;99.90
20732;DHT22;10527;52.124;5.196;2023-02-11T05:59:46;6.50;99.90
20732;DHT22;10527;52.124;5.196;2023-02-11T06:02:13;6.50;99.90
20732;DHT22;10527;52.124;5.196;2023-02-11T06:04:40;6.50;99.90
20732;DHT22;10527;52.124;5.196;2023-02-11T06:07:07;6.50;99.90
20732;DHT22;10527;52.124;5.196;2023-02-11T06:09:33;6.50;99.90
20732;DHT22;10527;52.124;5.196;2023-02-11T06:12:01;6.50;99.90
20732;DHT22;10527;52.124;5.196;2023-02-11T06:14:32;6.50;99.90
20732;DHT22;10527;52.124;5.196;2023-02-11T06:17:05;6.50;99.90
20732;DHT22;10527;52.124;5.196;2023-02-11T06:19:35;6.50;99.90
20732;DHT22;10527;52.124;5.196;2023-02-11T06:22:05;6.50;99.90
20732;DHT22;10527;52.124;5.196;2023-02-11T06:24:31;6.50;99.90
20732;DHT22;10527;52.124;5.196;2023-02-11T06:27:19;6.50;99.90
20732;DHT22;10527;52.124;5.196;2023-02-11T06:29:46;6.50;99.90
20732;DHT22;10527;52.124;5.196;2023-02-11T06:32:13;6.50;99.90
20732;DHT22;10527;52.124;5.196;2023-02-11T06:35:06;6.50;99.90
20732;DHT22;10527;52.124;5.196;2023-02-11T06:37:40;6.50;99.90
20732;DHT22;10527;52.124;5.196;2023-02-11T06:40:11;6.60;99.90
20732;DHT22;10527;52.124;5.196;2023-02-11T06:42:41;6.60;99.90
20732;DHT22;10527;52.124;5.196;2023-02-11T06:45:08;6.60;99.90
20732;DHT22;10527;52.124;5.196;2023-02-11T06:47:41;6.60;99.90
20732;DHT22;10527;52.124;5.196;2023-02-11T06:50:11;6.60;99.90
20732;DHT22;10527;52.124;5.196;2023-02-11T06:52:42;6.60;99.90
20732;DHT22;10527;52.124;5.196;2023-02-11T06:55:09;6.60;99.90
20732;DHT22;10527;52.124;5.196;2023-02-11T06:57:38;6.60;99.90
20732;DHT22;10527;52.124;5.196;2023-02-11T07:00:05;6.60;99.90
20732;DHT22;10527;52.124;5.196;2023-02-11T07:02:33;6.60;99.90
20732;DHT22;10527;52.124;5.196;2023-02-11T07:05:00;6.60;99.90
20732;DHT22;10527;52.124;5.196;2023-02-11T07:07:30;6.60;99.90
20732;DHT22;10527;52.124;5.196;2023-02-11T07:09:59;6.60;99.90
20732;DHT22;10527;52.124;5.196;2023-02-11T07:12:29;6.60;99.90
20732;DHT22;10527;52.124;5.196;2023-02-11T07:15:06;6.60;99.90
20732;DHT22;10527;52.124;5.196;2023-02-11T07:17:45;6.70;99.90
20732;DHT22;10527;52.124;5.196;2023-02-11T07:20:12;6.70;99.90
20732;DHT22;10527;52.124;5.196;2023-02-11T07:22:43;6.60;99.90
20732;DHT22;10527;52.124;5.196;2023-02-11T07:25:10;6.70;99.90
20732;DHT22;10527;52.124;5.196;2023-02-11T07:27:36;6.70;99.90
20732;DHT22;10527;52.124;5.196;2023-02-11T07:30:04;6.70;99.90
20732;DHT22;10527;52.124;5.196;2023-02-11T07:32:32;6.70;99.90
20732;DHT22;10527;52.124;5.196;2023-02-11T07:34:59;6.70;99.90
20732;DHT22;10527;52.124;5.196;2023-02-11T07:37:29;6.70;99.90
20732;DHT22;10527;52.124;5.196;2023-02-11T07:40:08;6.70;99.90
20732;DHT22;10527;52.124;5.196;2023-02-11T07:42:35;6.70;99.90
20732;DHT22;10527;52.124;5.196;2023-02-11T07:45:06;6.70;99.90
20732;DHT22;10527;52.124;5.196;2023-02-11T07:47:33;6.80;99.90
20732;DHT22;10527;52.124;5.196;2023-02-11T07:50:00;6.80;99.90
20732;DHT22;10527;52.124;5.196;2023-02-11T07:52:30;6.80;99.90
20732;DHT22;10527;52.124;5.196;2023-02-11T07:54:57;6.90;99.90
20732;DHT22;10527;52.124;5.196;2023-02-11T07:57:24;6.80;99.90
20732;DHT22;10527;52.124;5.196;2023-02-11T07:59:52;6.90;99.90
20732;DHT22;10527;52.124;5.196;2023-02-11T08:02:19;6.90;99.90
20732;DHT22;10527;52.124;5.196;2023-02-11T08:04:48;6.90;99.90
20732;DHT22;10527;52.124;5.196;2023-02-11T08:07:17;6.90;99.90
20732;DHT22;10527;52.124;5.196;2023-02-11T08:09:44;6.90;99.90
20732;DHT22;10527;52.124;5.196;2023-02-11T08:12:10;6.90;99.90
20732;DHT22;10527;52.124;5.196;2023-02-11T08:14:37;6.90;99.90
20732;DHT22;10527;52.124;5.196;2023-02-11T08:17:04;6.90;99.90
20732;DHT22;10527;52.124;5.196;2023-02-11T08:19:31;7.00;99.90
20732;DHT22;10527;52.124;5.196;2023-02-11T08:22:00;7.00;99.90
20732;DHT22;10527;52.124;5.196;2023-02-11T08:24:27;7.00;99.90
20732;DHT22;10527;52.124;5.196;2023-02-11T08:26:54;7.00;99.90
20732;DHT22;10527;52.124;5.196;2023-02-11T08:29:24;7.00;99.90
20732;DHT22;10527;52.124;5.196;2023-02-11T08:31:51;7.00;99.90
20732;DHT22;10527;52.124;5.196;2023-02-11T08:34:18;7.00;99.90
20732;DHT22;10527;52.124;5.196;2023-02-11T08:36:46;7.00;99.90
20732;DHT22;10527;52.124;5.196;2023-02-11T08:39:19;7.10;99.90
20732;DHT22;10527;52.124;5.196;2023-02-11T08:41:52;7.10;99.90
20732;DHT22;10527;52.124;5.196;2023-02-11T08:44:22;7.20;99.90
20732;DHT22;10527;52.124;5.196;2023-02-11T08:46:53;7.20;99.90
20732;DHT22;10527;52.124;5.196;2023-02-11T08:49:23;7.20;99.90
20732;DHT22;10527;52.124;5.196;2023-02-11T08:51:53;7.20;99.90
20732;DHT22;10527;52.124;5.196;2023-02-11T08:54:23;7.20;99.90
20732;DHT22;10527;52.124;5.196;2023-02-11T08:56:50;7.30;99.90
20732;DHT22;10527;52.124;5.196;2023-02-11T08:59:17;7.30;99.90
20732;DHT22;10527;52.124;5.196;2023-02-11T09:01:47;7.30;99.90
20732;DHT22;10527;52.124;5.196;2023-02-11T09:04:14;7.30;99.90
20732;DHT22;10527;52.124;5.196;2023-02-11T09:06:41;7.40;99.90
20732;DHT22;10527;52.124;5.196;2023-02-11T09:09:10;7.40;99.90
20732;DHT22;10527;52.124;5.196;2023-02-11T09:11:40;7.40;99.90
20732;DHT22;10527;52.124;5.196;2023-02-11T09:14:15;7.40;99.90
20732;DHT22;10527;52.124;5.196;2023-02-11T09:16:47;7.50;99.90
20732;DHT22;10527;52.124;5.196;2023-02-11T09:19:14;7.40;99.90
20732;DHT22;10527;52.124;5.196;2023-02-11T09:21:42;7.50;99.90
20732;DHT22;10527;52.124;5.196;2023-02-11T09:24:10;7.60;99.90
20732;DHT22;10527;52.124;5.196;2023-02-11T09:26:37;7.60;99.90
20732;DHT22;10527;52.124;5.196;2023-02-11T09:29:16;7.60;99.90
20732;DHT22;10527;52.124;5.196;2023-02-11T09:31:42;7.70;99.90
20732;DHT22;10527;52.124;5.196;2023-02-11T09:34:10;7.70;99.90
20732;DHT22;10527;52.124;5.196;2023-02-11T09:36:39;7.70;99.90
20732;DHT22;10527;52.124;5.196;2023-02-11T09:39:10;7.70;99.90
20732;DHT22;10527;52.124;5.196;2023-02-11T09:42:04;7.70;99.90
20732;DHT22;10527;52.124;5.196;2023-02-11T09:44:36;7.80;99.90
20732;DHT22;10527;52.124;5.196;2023-02-11T09:47:06;7.80;99.90
20732;DHT22;10527;52.124;5.196;2023-02-11T09:49:46;7.80;99.90
20732;DHT22;10527;52.124;5.196;2023-02-11T09:52:25;7.90;99.90
20732;DHT22;10527;52.124;5.196;2023-02-11T09:55:01;7.90;99.90
20732;DHT22;10527;52.124;5.196;2023-02-11T09:57:34;7.90;99.90
20732;DHT22;10527;52.124;5.196;2023-02-11T10:00:17;8.00;99.90
20732;DHT22;10527;52.124;5.196;2023-02-11T10:14:11;8.30;99.90
20732;DHT22;10527;52.124;5.196;2023-02-11T10:20:18;8.30;99.90
20732;DHT22;10527;52.124;5.196;2023-02-11T10:23:14;8.40;99.90
20732;DHT22;10527;52.124;5.196;2023-02-11T10:25:47;8.50;99.90
20732;DHT22;10527;52.124;5.196;2023-02-11T10:28:22;8.50;99.90
20732;DHT22;10527;52.124;5.196;2023-02-11T10:31:07;8.60;99.90
20732;DHT22;10527;52.124;5.196;2023-02-11T10:33:48;8.50;99.90
20732;DHT22;10527;52.124;5.196;2023-02-11T10:36:28;8.60;99.90
20732;DHT22;10527;52.124;5.196;2023-02-11T10:39:19;8.60;99.90
20732;DHT22;10527;52.124;5.196;2023-02-11T10:41:58;8.60;99.90
20732;DHT22;10527;52.124;5.196;2023-02-11T10:47:20;8.80;99.90
20732;DHT22;10527;52.124;5.196;2023-02-11T10:49:49;8.70;99.90
20732;DHT22;10527;52.124;5.196;2023-02-11T10:52:21;8.80;99.90
20732;DHT22;10527;52.124;5.196;2023-02-11T10:55:17;8.90;99.90
20732;DHT22;10527;52.124;5.196;2023-02-11T10:57:57;8.90;99.90
20732;DHT22;10527;52.124;5.196;2023-02-11T11:00:41;9.00;99.90
20732;DHT22;10527;52.124;5.196;2023-02-11T11:03:20;9.10;99.90
20732;DHT22;10527;52.124;5.196;2023-02-11T11:05:51;9.20;99.90
20732;DHT22;10527;52.124;5.196;2023-02-11T11:08:47;9.20;99.90
20732;DHT22;10527;52.124;5.196;2023-02-11T11:11:16;9.40;99.90
20732;DHT22;10527;52.124;5.196;2023-02-11T11:14:03;9.50;99.90
20732;DHT22;10527;52.124;5.196;2023-02-11T11:16:34;9.50;99.90
20732;DHT22;10527;52.124;5.196;2023-02-11T11:21:43;9.60;99.90
20732;DHT22;10527;52.124;5.196;2023-02-11T11:27:23;9.70;99.90
20732;DHT22;10527;52.124;5.196;2023-02-11T11:29:57;9.80;99.90
20732;DHT22;10527;52.124;5.196;2023-02-11T11:32:30;9.80;99.90
20732;DHT22;10527;52.124;5.196;2023-02-11T11:35:18;9.80;99.90
20732;DHT22;10527;52.124;5.196;2023-02-11T11:37:59;9.90;99.90
20732;DHT22;10527;52.124;5.196;2023-02-11T11:40:30;9.90;99.90
20732;DHT22;10527;52.124;5.196;2023-02-11T11:46:03;10.10;99.90
20732;DHT22;10527;52.124;5.196;2023-02-11T11:48:41;10.20;99.90
20732;DHT22;10527;52.124;5.196;2023-02-11T11:51:12;10.20;99.90
20732;DHT22;10527;52.124;5.196;2023-02-11T11:56:35;10.20;99.90
20732;DHT22;10527;52.124;5.196;2023-02-11T11:59:12;10.20;99.90
20732;DHT22;10527;52.124;5.196;2023-02-11T12:01:58;10.30;99.90
20732;DHT22;10527;52.124;5.196;2023-02-11T12:07:40;10.30;99.90
20732;DHT22;10527;52.124;5.196;2023-02-11T12:13:53;10.20;99.90
20732;DHT22;10527;52.124;5.196;2023-02-11T12:16:56;10.10;99.90
20732;DHT22;10527;52.124;5.196;2023-02-11T12:32:09;10.30;99.90
20732;DHT22;10527;52.124;5.196;2023-02-11T12:41:14;10.30;99.90
20732;DHT22;10527;52.124;5.196;2023-02-11T12:44:10;10.30;99.90
20732;DHT22;10527;52.124;5.196;2023-02-11T12:47:14;10.30;99.90
20732;DHT22;10527;52.124;5.196;2023-02-11T12:58:58;10.50;99.90
20732;DHT22;10527;52.124;5.196;2023-02-11T13:01:33;10.60;99.90
20732;DHT22;10527;52.124;5.196;2023-02-11T13:04:25;10.60;99.90
20732;DHT22;10527;52.124;5.196;2023-02-11T13:07:03;10.70;99.90
20732;DHT22;10527;52.124;5.196;2023-02-11T13:10:15;10.70;99.90
20732;DHT22;10527;52.124;5.196;2023-02-11T13:12:55;10.60;99.90
20732;DHT22;10527;52.124;5.196;2023-02-11T13:15:54;10.60;99.90
20732;DHT22;10527;52.124;5.196;2023-02-11T13:18:46;10.50;99.90
20732;DHT22;10527;52.124;5.196;2023-02-11T13:27:56;10.50;99.90
20732;DHT22;10527;52.124;5.196;2023-02-11T13:30:27;10.40;99.90
20732;DHT22;10527;52.124;5.196;2023-02-11T13:38:28;10.50;99.90
20732;DHT22;10527;52.124;5.196;2023-02-11T13:43:34;10.50;99.90
20732;DHT22;10527;52.124;5.196;2023-02-11T13:46:07;10.60;99.90
20732;DHT22;10527;52.124;5.196;2023-02-11T13:48:50;10.50;99.90
20732;DHT22;10527;52.124;5.196;2023-02-11T13:51:38;10.50;99.90
20732;DHT22;10527;52.124;5.196;2023-02-11T13:54:17;10.50;99.90
20732;DHT22;10527;52.124;5.196;2023-02-11T13:57:20;10.60;99.90
20732;DHT22;10527;52.124;5.196;2023-02-11T13:59:58;10.50;99.90
20732;DHT22;10527;52.124;5.196;2023-02-11T14:02:36;10.60;99.90
20732;DHT22;10527;52.124;5.196;2023-02-11T14:05:28;10.50;99.90
20732;DHT22;10527;52.124;5.196;2023-02-11T14:08:22;10.60;99.90
20732;DHT22;10527;52.124;5.196;2023-02-11T14:16:19;10.60;99.90
20732;DHT22;10527;52.124;5.196;2023-02-11T14:19:04;10.60;99.90
20732;DHT22;10527;52.124;5.196;2023-02-11T14:21:34;10.60;99.90
20732;DHT22;10527;52.124;5.196;2023-02-11T14:26:46;10.70;99.90
20732;DHT22;10527;52.124;5.196;2023-02-11T14:29:27;10.70;99.90
20732;DHT22;10527;52.124;5.196;2023-02-11T14:32:06;10.60;99.90
20732;DHT22;10527;52.124;5.196;2023-02-11T14:38:03;10.50;99.90
20732;DHT22;10527;52.124;5.196;2023-02-11T14:43:56;10.60;99.90
20732;DHT22;10527;52.124;5.196;2023-02-11T14:46:29;10.60;99.90
20732;DHT22;10527;52.124;5.196;2023-02-11T14:49:02;10.60;99.90
20732;DHT22;10527;52.124;5.196;2023-02-11T14:51:35;10.60;99.90
20732;DHT22;10527;52.124;5.196;2023-02-11T14:54:18;10.60;99.90
20732;DHT22;10527;52.124;5.196;2023-02-11T14:57:05;10.50;99.90
20732;DHT22;10527;52.124;5.196;2023-02-11T14:59:55;10.50;99.90
20732;DHT22;10527;52.124;5.196;2023-02-11T15:02:36;10.50;99.90
20732;DHT22;10527;52.124;5.196;2023-02-11T15:05:25;10.40;99.90
20732;DHT22;10527;52.124;5.196;2023-02-11T15:07:59;10.40;99.90
20732;DHT22;10527;52.124;5.196;2023-02-11T15:10:42;10.40;99.90
20732;DHT22;10527;52.124;5.196;2023-02-11T15:13:20;10.40;99.90
20732;DHT22;10527;52.124;5.196;2023-02-11T15:16:07;10.40;99.90
20732;DHT22;10527;52.124;5.196;2023-02-11T15:18:40;10.40;99.90
20732;DHT22;10527;52.124;5.196;2023-02-11T15:21:10;10.40;99.90
20732;DHT22;10527;52.124;5.196;2023-02-11T15:23:37;10.40;99.90
20732;DHT22;10527;52.124;5.196;2023-02-11T15:26:20;10.30;99.90
20732;DHT22;10527;52.124;5.196;2023-02-11T15:28:47;10.30;99.90
20732;DHT22;10527;52.124;5.196;2023-02-11T15:31:23;10.30;99.90
20732;DHT22;10527;52.124;5.196;2023-02-11T15:33:52;10.30;99.90
20732;DHT22;10527;52.124;5.196;2023-02-11T15:36:23;10.30;99.90
20732;DHT22;10527;52.124;5.196;2023-02-11T15:47:47;10.20;99.90
20732;DHT22;10527;52.124;5.196;2023-02-11T15:50:25;10.20;99.90
20732;DHT22;10527;52.124;5.196;2023-02-11T15:52:56;10.20;99.90
20732;DHT22;10527;52.124;5.196;2023-02-11T15:55:27;10.10;99.90
20732;DHT22;10527;52.124;5.196;2023-02-11T15:57:57;10.20;99.90
20732;DHT22;10527;52.124;5.196;2023-02-11T16:00:35;10.10;99.90
20732;DHT22;10527;52.124;5.196;2023-02-11T16:03:03;10.00;99.90
20732;DHT22;10527;52.124;5.196;2023-02-11T16:05:36;10.00;99.90
20732;DHT22;10527;52.124;5.196;2023-02-11T16:08:27;10.00;99.90
20732;DHT22;10527;52.124;5.196;2023-02-11T16:10:59;9.90;99.90
20732;DHT22;10527;52.124;5.196;2023-02-11T16:13:30;9.90;99.90
20732;DHT22;10527;52.124;5.196;2023-02-11T16:16:04;9.80;99.90
20732;DHT22;10527;52.124;5.196;2023-02-11T16:18:53;9.80;99.90
20732;DHT22;10527;52.124;5.196;2023-02-11T16:21:40;9.80;99.90
20732;DHT22;10527;52.124;5.196;2023-02-11T16:24:23;9.70;99.90
20732;DHT22;10527;52.124;5.196;2023-02-11T16:26:56;9.70;99.90
20732;DHT22;10527;52.124;5.196;2023-02-11T16:29:27;9.70;99.90
20732;DHT22;10527;52.124;5.196;2023-02-11T16:34:44;9.70;99.90
20732;DHT22;10527;52.124;5.196;2023-02-11T16:37:11;9.70;99.90
20732;DHT22;10527;52.124;5.196;2023-02-11T16:39:38;9.60;99.90
20732;DHT22;10527;52.124;5.196;2023-02-11T16:42:05;9.60;99.90
20732;DHT22;10527;52.124;5.196;2023-02-11T16:44:34;9.60;99.90
20732;DHT22;10527;52.124;5.196;2023-02-11T16:47:02;9.50;99.90
20732;DHT22;10527;52.124;5.196;2023-02-11T16:49:39;9.50;99.90
20732;DHT22;10527;52.124;5.196;2023-02-11T16:52:12;9.40;99.90
20732;DHT22;10527;52.124;5.196;2023-02-11T16:54:41;9.40;99.90
20732;DHT22;10527;52.124;5.196;2023-02-11T16:57:13;9.30;99.90
20732;DHT22;10527;52.124;5.196;2023-02-11T16:59:42;9.30;99.90
20732;DHT22;10527;52.124;5.196;2023-02-11T17:02:31;9.30;99.90
20732;DHT22;10527;52.124;5.196;2023-02-11T17:05:02;9.30;99.90
20732;DHT22;10527;52.124;5.196;2023-02-11T17:07:31;9.30;99.90
20732;DHT22;10527;52.124;5.196;2023-02-11T17:09:58;9.20;99.90
20732;DHT22;10527;52.124;5.196;2023-02-11T17:12:26;9.20;99.90
20732;DHT22;10527;52.124;5.196;2023-02-11T17:14:53;9.10;99.90
20732;DHT22;10527;52.124;5.196;2023-02-11T17:17:19;9.10;99.90
20732;DHT22;10527;52.124;5.196;2023-02-11T17:19:49;9.10;99.90
20732;DHT22;10527;52.124;5.196;2023-02-11T17:22:17;9.10;99.90
20732;DHT22;10527;52.124;5.196;2023-02-11T17:24:44;9.00;99.90
20732;DHT22;10527;52.124;5.196;2023-02-11T17:27:11;9.10;99.90
20732;DHT22;10527;52.124;5.196;2023-02-11T17:29:41;9.10;99.90
20732;DHT22;10527;52.124;5.196;2023-02-11T17:32:08;9.10;99.90
20732;DHT22;10527;52.124;5.196;2023-02-11T17:34:35;9.10;99.90
20732;DHT22;10527;52.124;5.196;2023-02-11T17:37:02;9.10;99.90
20732;DHT22;10527;52.124;5.196;2023-02-11T17:39:38;9.10;99.90
20732;DHT22;10527;52.124;5.196;2023-02-11T17:42:06;9.20;99.90
20732;DHT22;10527;52.124;5.196;2023-02-11T17:44:36;9.10;99.90
20732;DHT22;10527;52.124;5.196;2023-02-11T17:47:03;9.10;99.90
20732;DHT22;10527;52.124;5.196;2023-02-11T17:49:33;9.10;99.90
20732;DHT22;10527;52.124;5.196;2023-02-11T17:52:00;9.10;99.90
20732;DHT22;10527;52.124;5.196;2023-02-11T17:54:29;9.00;99.90
20732;DHT22;10527;52.124;5.196;2023-02-11T17:56:59;9.00;99.90
20732;DHT22;10527;52.124;5.196;2023-02-11T17:59:25;9.00;99.90
20732;DHT22;10527;52.124;5.196;2023-02-11T18:01:59;9.00;99.90
20732;DHT22;10527;52.124;5.196;2023-02-11T18:04:27;9.00;99.90
20732;DHT22;10527;52.124;5.196;2023-02-11T18:06:59;9.00;99.90
20732;DHT22;10527;52.124;5.196;2023-02-11T18:09:26;9.00;99.90
20732;DHT22;10527;52.124;5.196;2023-02-11T18:11:55;9.10;99.90
20732;DHT22;10527;52.124;5.196;2023-02-11T18:14:23;9.00;99.90
20732;DHT22;10527;52.124;5.196;2023-02-11T18:16:51;9.00;99.90
20732;DHT22;10527;52.124;5.196;2023-02-11T18:19:19;8.90;99.90
20732;DHT22;10527;52.124;5.196;2023-02-11T18:21:49;8.90;99.90
20732;DHT22;10527;52.124;5.196;2023-02-11T18:24:17;8.80;99.90
20732;DHT22;10527;52.124;5.196;2023-02-11T18:26:44;8.90;99.90
20732;DHT22;10527;52.124;5.196;2023-02-11T18:29:11;8.90;99.90
20732;DHT22;10527;52.124;5.196;2023-02-11T18:31:38;8.80;99.90
20732;DHT22;10527;52.124;5.196;2023-02-11T18:34:06;8.80;99.90
20732;DHT22;10527;52.124;5.196;2023-02-11T18:36:38;8.80;99.90